createdAt,value
2022-09-20T00:09:10.536Z,0.60
2022-09-20T00:23:10.558Z,0.80
2022-09-20T00:37:10.547Z,0.60
2022-09-20T00:51:10.615Z,0.50
2022-09-20T01:05:10.607Z,0.50
2022-09-20T01:19:10.595Z,0.50
2022-09-20T01:33:10.659Z,0.40
2022-09-20T01:47:10.639Z,0.40
2022-09-20T02:01:10.732Z,0.50
2022-09-20T02:15:10.807Z,0.30
2022-09-20T02:29:10.876Z,0.40
2022-09-20T02:43:10.822Z,0.40
2022-09-20T02:57:10.841Z,0.40
2022-09-20T03:11:10.877Z,0.30
2022-09-20T03:25:10.845Z,0.40
2022-09-20T03:39:10.873Z,0.30
2022-09-20T03:53:10.955Z,0.30
2022-09-20T04:07:10.881Z,0.30
2022-09-20T04:21:10.879Z,0.30
2022-09-20T04:35:10.910Z,0.30
2022-09-20T04:49:10.876Z,0.50
2022-09-20T05:04:10.973Z,0.70
2022-09-20T05:19:10.905Z,0.90
2022-09-20T05:34:10.891Z,1.10
2022-09-20T05:49:10.950Z,1.00
2022-09-20T06:04:10.914Z,1.10
2022-09-20T06:19:10.940Z,1.20
2022-09-20T06:35:10.935Z,1.10
2022-09-20T06:50:10.950Z,1.00
2022-09-20T07:06:10.953Z,1.05
2022-09-20T07:21:11.053Z,1.10
2022-09-20T07:36:11.128Z,1.30
2022-09-20T07:51:11.095Z,9.50
2022-09-20T08:06:11.093Z,8.00
2022-09-20T08:21:11.120Z,6.90
2022-09-20T08:36:11.108Z,5.60
2022-09-20T08:51:11.112Z,5.00
2022-09-20T09:06:13.297Z,3.40
2022-09-20T09:21:11.115Z,3.20
2022-09-20T09:36:11.261Z,2.70
2022-09-20T09:51:11.237Z,2.60
2022-09-20T10:06:11.209Z,2.30
2022-09-20T10:21:11.243Z,2.10
2022-09-20T10:36:11.275Z,1.50
2022-09-20T10:51:11.286Z,1.40
2022-09-20T11:06:11.287Z,1.00
2022-09-20T11:21:11.329Z,0.80
2022-09-20T11:36:11.354Z,0.80
2022-09-20T11:51:11.424Z,0.70
2022-09-20T12:06:11.331Z,0.60
2022-09-20T12:22:11.325Z,0.70
2022-09-20T12:37:11.348Z,0.50
2022-09-20T12:52:11.343Z,0.50
2022-09-20T13:07:11.351Z,0.40
2022-09-20T13:22:11.341Z,0.40
2022-09-20T13:37:11.377Z,0.30
2022-09-20T13:52:11.634Z,0.40
2022-09-20T14:07:11.373Z,0.20
2022-09-20T14:22:11.384Z,0.30
2022-09-20T14:37:11.399Z,0.30
2022-09-20T14:52:11.368Z,0.40
2022-09-20T15:07:11.407Z,0.30
2022-09-20T15:22:11.424Z,0.30
2022-09-20T15:37:11.411Z,0.20
2022-09-20T15:52:11.405Z,0.30
2022-09-20T16:07:11.408Z,0.30
2022-09-20T16:22:11.406Z,0.20
2022-09-20T16:37:11.973Z,0.50
2022-09-20T16:53:11.533Z,1.10
2022-09-20T17:08:11.655Z,1.00
2022-09-20T17:23:11.648Z,1.00
2022-09-20T17:38:11.722Z,0.90
2022-09-20T17:53:11.494Z,0.85
2022-09-20T18:08:11.515Z,0.75
2022-09-20T18:22:11.495Z,0.70
2022-09-20T18:37:14.669Z,0.60
2022-09-20T18:51:11.495Z,1.60
2022-09-20T19:05:11.502Z,1.50
2022-09-20T19:19:11.582Z,1.30
2022-09-20T19:33:11.602Z,0.90
2022-09-20T19:47:11.568Z,0.90
2022-09-20T20:01:11.702Z,1.10
2022-09-20T20:15:11.695Z,0.80
2022-09-20T20:29:11.697Z,0.80
2022-09-20T20:43:11.727Z,0.80
2022-09-20T20:57:11.719Z,0.80
2022-09-20T21:11:11.785Z,0.70
2022-09-20T21:25:11.774Z,0.70
2022-09-20T21:39:11.726Z,0.70
2022-09-20T21:53:11.763Z,0.60
2022-09-20T22:07:11.739Z,0.60
2022-09-20T22:21:11.754Z,0.50
2022-09-20T22:35:11.765Z,0.40
2022-09-20T22:49:11.785Z,0.50
2022-09-20T23:03:11.787Z,0.40
2022-09-20T23:17:11.787Z,0.50
2022-09-20T23:31:11.833Z,0.50
2022-09-20T23:45:11.810Z,0.60
2022-09-20T23:59:11.781Z,0.50
